METAR stanice u blizini

 

LYBE - Beograd / Surčin, Srbija
Ažurirano: 28/01/2020 00:00
Magla, Pretežno oblačno
Magla, Pretežno oblačno
 Pravac vetra JI
Vetar: JI 7 km/h
Temperatura: 0°C
Osećaj hladnoće: -3°C
Tačka rose: 0°C
Vlažnost: 100%
Pritisak: 1017 hPa
Pregled: Magla
Oblaci: Mostly Cloudy
Vidljivost: 1 km
Cloud details: Mostly Cloudy 244 m
2020/01/27 23:00 LYBE 272300Z 14004KT 0600 R12/1400U R30/0500D FG BKN008 00/00 Q1017 NOSIG
LYBT - Beograd / Batajnica, Srbija
Ažurirano: 28/01/2020 00:00
Magla, Delimično oblačno
Magla, Delimično oblačno
 Pravac vetra varies
Vetar: varies 2 km/h
Temperatura: 1°C
Tačka rose: 1°C
Vlažnost: 100%
Pritisak: 1017 hPa
Pregled: Magla
Oblaci: Partly Cloudy
Vidljivost: 1 km
Cloud details: Partly Cloudy 122 m
2020/01/27 23:00 LYBT 272300Z VRB01KT 0600 R12/0800D R30/0900D FG SCT004 01/01 Q1017 NOSIG
LYVR - Vršac, Srbija
Ažurirano: 28/01/2020 00:00
Mist, Oblačno
Mist, Oblačno
 Pravac vetra J
Vetar: J 9 km/h
Temperatura: 3°C
Osećaj hladnoće: 0°C
Tačka rose: 3°C
Vlažnost: 100%
Pritisak: 1018 hPa
Pregled: Mist
Oblaci: Oblačno
Vidljivost: 4 km
Cloud details: Few Clouds 122 m
Oblačno 488 m
2020/01/27 23:00 LYVR 272300Z AUTO 17005KT 150V220 4200 BR FEW004/// OVC016/// 03/03 Q1018
 
LYKV - Lađevci, Srbija
Ažurirano: 28/01/2020 00:00
Magla, Pretežno oblačno
Magla, Pretežno oblačno
 Pravac vetra calm
Vetar: Tišina
Temperatura: 1°C
Tačka rose: 1°C
Vlažnost: 100%
Pritisak: 1018 hPa
Pregled: Magla
Oblaci: Mostly Cloudy
Vidljivost: 0 km
Cloud details: Mostly Cloudy 305 m
2020/01/27 23:00 LYKV 272300Z 00000KT 0400 FG BKN010 01/01 Q1018 NOSIG
LYNI - Niš, Srbija
Ažurirano: 28/01/2020 00:00
Oblačno
Oblačno
 Pravac vetra JJZ
Vetar: JJZ 6 km/h
Temperatura: 3°C
Tačka rose: 3°C
Vlažnost: 100%
Pritisak: 1018 hPa
Oblaci: Oblačno
Vidljivost: 7 km
Cloud details: Partly Cloudy 183 m
Mostly Cloudy 610 m
Oblačno 914 m
2020/01/27 23:00 LYNI 272300Z 20003KT 7000 SCT006 BKN020 OVC030 03/03 Q1018 NOSIG
BKPR - Priština, Srbija
Ažurirano: 28/01/2020 00:00
Vedro
Vedro
 Pravac vetra varies
Vetar: varies 6 km/h
Temperatura: 2°C
Tačka rose: -1°C
Vlažnost: 81%
Pritisak: 1017 hPa
Pregled: Vedro
Vidljivost: greater than 10 km
2020/01/27 23:00 BKPR 272300Z VRB03KT CAVOK 02/M01 Q1017 NOSIG RMK 17010095
 
LHPP - Pecs / Pogany, Hungary
Ažurirano: 27/01/2020 18:45
NOT Current
Magla, Oblačno
Magla, Oblačno
 Pravac vetra Z
Vetar: Z 7 km/h
Temperatura: 1°C
Osećaj hladnoće: -2°C
Tačka rose: 1°C
Vlažnost: 100%
Pritisak: 1017 hPa
Pregled: Magla
Oblaci: Oblačno
Vidljivost: 0 km
Cloud details: Oblačno 152 m
2020/01/27 17:45 LHPP 271745Z 26004KT 0300 FG OVC005 01/01 Q1017
LHUD - Szeged, Hungary
Ažurirano: 04/07/2019 01:45
NOT Current
Vedro
Vedro
 Pravac vetra S
Vetar: S 7 km/h
Temperatura: 18°C
Tačka rose: 13°C
Vlažnost: 73%
Pritisak: 1019 hPa
Pregled: Vedro
Vidljivost: greater than 10 km
2019/07/03 23:45 LHUD 032345Z 35004KT CAVOK 18/13 Q1019
LRTR - Timisoara, Romania
Ažurirano: 28/01/2020 00:00
Magla, Oblačno
Magla, Oblačno
 Pravac vetra J
Vetar: J 7 km/h
Temperatura: 2°C
Osećaj hladnoće: 0°C
Tačka rose: 2°C
Vlažnost: 100%
Pritisak: 1017 hPa
Pregled: Magla
Oblaci: Oblačno
Vidljivost: 1 km
Cloud details: Oblačno 61 m
2020/01/27 23:00 LRTR 272300Z 19004KT 0800 R11/1000U R29/1000U FG OVC002 02/02 Q1017 R11/290095
 
LRCV - Craiova, Romania
Ažurirano: 28/01/2020 00:00
Mist, Oblačno
Mist, Oblačno
 Pravac vetra ZJZ
Vetar: ZJZ 11 km/h
Temperatura: 4°C
Osećaj hladnoće: 1°C
Tačka rose: 4°C
Vlažnost: 100%
Pritisak: 1014 hPa
Pregled: Mist
Oblaci: Oblačno
Vidljivost: 2 km
Cloud details: Oblačno 91 m
2020/01/27 23:00 LRCV 272300Z 24006KT 2000 0800E BR OVC003 04/04 Q1014 R27/29//95
LBSF - Sofia, Bulgaria
Ažurirano: 28/01/2020 00:00
Oblačno
Oblačno
 Pravac vetra ZSZ
Vetar: ZSZ 19 km/h
Temperatura: 5°C
Osećaj hladnoće: 1°C
Tačka rose: 2°C
Vlažnost: 81%
Pritisak: 1016 hPa
Oblaci: Oblačno
Vidljivost: 10 km
Cloud details: Partly Cloudy 671 m
Mostly Cloudy 762 m
Oblačno 1433 m
2020/01/27 23:00 LBSF 272300Z 29010KT 9999 SCT022 BKN025 OVC047 05/02 Q1016 R99/29//95 NOSIG
LWSK - Skoplje, Makedonija
Ažurirano: 28/01/2020 00:00
Light drizzle, Mist, Pretežno oblačno
Light drizzle, Mist, Pretežno oblačno
 Pravac vetra calm
Vetar: Tišina
Temperatura: 5°C
Tačka rose: 4°C
Vlažnost: 93%
Pritisak: 1018 hPa
Pregled: Light drizzle, Mist
Oblaci: Mostly Cloudy
Vidljivost: 2 km
Cloud details: Partly Cloudy 152 m
Mostly Cloudy 1524 m
2020/01/27 23:00 LWSK 272300Z 00000KT 1900 -DZ BR SCT005 BKN050 05/04 Q1018 NOSIG
 
LYPG - Podgorica, Crna Gora
Ažurirano: 28/01/2020 00:00
Mist, Pretežno oblačno
Mist, Pretežno oblačno
 Pravac vetra varies
Vetar: varies 4 km/h
Temperatura: 7°C
Tačka rose: 7°C
Vlažnost: 100%
Pritisak: 1019 hPa
Pregled: Mist
Oblaci: Mostly Cloudy
Vidljivost: 3 km
Cloud details: Few Clouds 305 m
Mostly Cloudy 1524 m
2020/01/27 23:00 LYPG 272300Z VRB02KT 3000 BR FEW010 BKN050 07/07 Q1019 NOSIG
LQSA - Sarajevo, Bosna i Hercegovina
Ažurirano: 28/01/2020 00:00
Magla, Oblačno
Magla, Oblačno
 Pravac vetra IJI
Vetar: IJI 6 km/h
Temperatura: 2°C
Tačka rose: 2°C
Vlažnost: 100%
Pritisak: 1017 hPa
Pregled: Magla
Oblaci: Oblačno
Vidljivost: 0 km
Cloud details: Oblačno 30 m
2020/01/27 23:00 LQSA 272300Z 11003KT 090V150 0300 R11/0400N FG VV001 02/02 Q1017
LDOS - Osijek, Hrvatksa
Ažurirano: 28/01/2020 00:00
Magla, Oblačno
Magla, Oblačno
 Pravac vetra JJZ
Vetar: JJZ 13 km/h
Temperatura: 3°C
Osećaj hladnoće: -1°C
Tačka rose: 2°C
Vlažnost: 93%
Pritisak: 1016 hPa
Pregled: Magla
Oblaci: Oblačno
Vidljivost: 0 km
Cloud details: Oblačno 30 m
2020/01/27 23:00 LDOS 272300Z 21007KT 0100 FG VV001 03/02 Q1016